sensor_id;sensor_type;location;lat;lon;timestamp;P1;durP1;ratioP1;P2;durP2;ratioP2
75073;SDS011;63652;51.526;5.080;2022-12-29T00:01:30;2.20;;;1.00;;
75073;SDS011;63652;51.526;5.080;2022-12-29T00:03:55;3.05;;;0.98;;
75073;SDS011;63652;51.526;5.080;2022-12-29T00:06:24;2.55;;;0.90;;
75073;SDS011;63652;51.526;5.080;2022-12-29T00:08:49;2.67;;;0.80;;
75073;SDS011;63652;51.526;5.080;2022-12-29T00:11:16;4.40;;;0.77;;
75073;SDS011;63652;51.526;5.080;2022-12-29T00:13:43;5.28;;;1.20;;
75073;SDS011;63652;51.526;5.080;2022-12-29T00:16:30;2.40;;;0.52;;
75073;SDS011;63652;51.526;5.080;2022-12-29T00:18:56;3.05;;;1.02;;
75073;SDS011;63652;51.526;5.080;2022-12-29T00:21:22;1.73;;;0.40;;
75073;SDS011;63652;51.526;5.080;2022-12-29T00:24:14;3.38;;;0.98;;
75073;SDS011;63652;51.526;5.080;2022-12-29T00:29:46;2.70;;;0.82;;
75073;SDS011;63652;51.526;5.080;2022-12-29T00:32:31;3.47;;;0.88;;
75073;SDS011;63652;51.526;5.080;2022-12-29T00:35:25;2.50;;;0.90;;
75073;SDS011;63652;51.526;5.080;2022-12-29T00:37:53;2.08;;;0.77;;
75073;SDS011;63652;51.526;5.080;2022-12-29T00:40:39;4.15;;;1.27;;
75073;SDS011;63652;51.526;5.080;2022-12-29T00:43:24;2.17;;;1.10;;
75073;SDS011;63652;51.526;5.080;2022-12-29T00:46:08;4.57;;;1.05;;
75073;SDS011;63652;51.526;5.080;2022-12-29T00:48:33;3.47;;;1.02;;
75073;SDS011;63652;51.526;5.080;2022-12-29T00:51:28;3.38;;;1.27;;
75073;SDS011;63652;51.526;5.080;2022-12-29T00:53:53;2.40;;;1.20;;
75073;SDS011;63652;51.526;5.080;2022-12-29T00:56:19;2.80;;;1.30;;
75073;SDS011;63652;51.526;5.080;2022-12-29T00:58:44;2.97;;;1.20;;
75073;SDS011;63652;51.526;5.080;2022-12-29T01:01:09;4.32;;;1.25;;
75073;SDS011;63652;51.526;5.080;2022-12-29T01:03:36;4.72;;;1.58;;
75073;SDS011;63652;51.526;5.080;2022-12-29T01:06:06;3.38;;;1.48;;
75073;SDS011;63652;51.526;5.080;2022-12-29T01:08:33;2.85;;;1.48;;
75073;SDS011;63652;51.526;5.080;2022-12-29T01:11:06;4.05;;;1.42;;
75073;SDS011;63652;51.526;5.080;2022-12-29T01:13:33;3.85;;;1.50;;
75073;SDS011;63652;51.526;5.080;2022-12-29T01:15:58;3.30;;;1.02;;
75073;SDS011;63652;51.526;5.080;2022-12-29T01:18:24;2.30;;;1.02;;
75073;SDS011;63652;51.526;5.080;2022-12-29T01:20:50;3.15;;;0.80;;
75073;SDS011;63652;51.526;5.080;2022-12-29T01:23:23;3.22;;;1.02;;
75073;SDS011;63652;51.526;5.080;2022-12-29T01:25:48;2.53;;;1.05;;
75073;SDS011;63652;51.526;5.080;2022-12-29T01:28:14;2.00;;;0.70;;
75073;SDS011;63652;51.526;5.080;2022-12-29T01:30:39;2.67;;;0.80;;
75073;SDS011;63652;51.526;5.080;2022-12-29T01:33:04;4.75;;;1.00;;
75073;SDS011;63652;51.526;5.080;2022-12-29T01:35:30;3.58;;;0.70;;
75073;SDS011;63652;51.526;5.080;2022-12-29T01:37:55;2.53;;;0.60;;
75073;SDS011;63652;51.526;5.080;2022-12-29T01:40:21;1.55;;;0.55;;
75073;SDS011;63652;51.526;5.080;2022-12-29T01:42:46;3.72;;;0.57;;
75073;SDS011;63652;51.526;5.080;2022-12-29T01:45:12;1.13;;;0.47;;
75073;SDS011;63652;51.526;5.080;2022-12-29T01:47:44;2.42;;;0.65;;
75073;SDS011;63652;51.526;5.080;2022-12-29T01:50:24;2.03;;;0.60;;
75073;SDS011;63652;51.526;5.080;2022-12-29T01:53:02;2.33;;;0.60;;
75073;SDS011;63652;51.526;5.080;2022-12-29T01:55:30;2.45;;;0.70;;
75073;SDS011;63652;51.526;5.080;2022-12-29T01:57:59;2.38;;;0.47;;
75073;SDS011;63652;51.526;5.080;2022-12-29T02:00:26;3.45;;;0.40;;
75073;SDS011;63652;51.526;5.080;2022-12-29T02:02:52;5.03;;;0.60;;
75073;SDS011;63652;51.526;5.080;2022-12-29T02:07:53;3.65;;;0.95;;
75073;SDS011;63652;51.526;5.080;2022-12-29T02:10:19;3.58;;;0.40;;
75073;SDS011;63652;51.526;5.080;2022-12-29T02:12:46;1.90;;;0.50;;
75073;SDS011;63652;51.526;5.080;2022-12-29T02:15:11;2.85;;;0.60;;
75073;SDS011;63652;51.526;5.080;2022-12-29T02:17:41;3.05;;;0.65;;
75073;SDS011;63652;51.526;5.080;2022-12-29T02:28:47;1.90;;;0.32;;
75073;SDS011;63652;51.526;5.080;2022-12-29T02:31:24;2.80;;;0.55;;
75073;SDS011;63652;51.526;5.080;2022-12-29T02:39:34;2.50;;;0.68;;
75073;SDS011;63652;51.526;5.080;2022-12-29T02:44:46;3.33;;;0.60;;
75073;SDS011;63652;51.526;5.080;2022-12-29T02:47:17;5.53;;;0.73;;
75073;SDS011;63652;51.526;5.080;2022-12-29T02:52:43;2.67;;;1.20;;
75073;SDS011;63652;51.526;5.080;2022-12-29T02:55:30;4.82;;;1.13;;
75073;SDS011;63652;51.526;5.080;2022-12-29T03:00:33;0.77;;;0.30;;
75073;SDS011;63652;51.526;5.080;2022-12-29T03:03:24;2.30;;;0.63;;
75073;SDS011;63652;51.526;5.080;2022-12-29T03:11:03;4.07;;;0.75;;
75073;SDS011;63652;51.526;5.080;2022-12-29T03:13:52;2.45;;;0.63;;
75073;SDS011;63652;51.526;5.080;2022-12-29T03:19:26;2.80;;;0.50;;
75073;SDS011;63652;51.526;5.080;2022-12-29T03:24:41;2.13;;;0.70;;
75073;SDS011;63652;51.526;5.080;2022-12-29T03:27:09;3.83;;;0.60;;
75073;SDS011;63652;51.526;5.080;2022-12-29T03:29:37;1.50;;;0.57;;
75073;SDS011;63652;51.526;5.080;2022-12-29T03:32:05;2.45;;;0.47;;
75073;SDS011;63652;51.526;5.080;2022-12-29T03:34:32;2.63;;;0.50;;
75073;SDS011;63652;51.526;5.080;2022-12-29T03:36:59;5.15;;;0.60;;
75073;SDS011;63652;51.526;5.080;2022-12-29T03:39:28;0.88;;;0.40;;
75073;SDS011;63652;51.526;5.080;2022-12-29T03:42:01;2.38;;;0.52;;
75073;SDS011;63652;51.526;5.080;2022-12-29T03:44:32;2.20;;;0.57;;
75073;SDS011;63652;51.526;5.080;2022-12-29T03:47:01;1.35;;;0.43;;
75073;SDS011;63652;51.526;5.080;2022-12-29T03:49:27;3.47;;;0.75;;
75073;SDS011;63652;51.526;5.080;2022-12-29T03:51:55;2.15;;;0.60;;
75073;SDS011;63652;51.526;5.080;2022-12-29T03:54:20;2.00;;;0.50;;
75073;SDS011;63652;51.526;5.080;2022-12-29T03:56:46;2.78;;;0.82;;
75073;SDS011;63652;51.526;5.080;2022-12-29T03:59:11;4.65;;;0.82;;
75073;SDS011;63652;51.526;5.080;2022-12-29T04:01:37;1.65;;;0.52;;
75073;SDS011;63652;51.526;5.080;2022-12-29T04:04:03;3.35;;;1.02;;
75073;SDS011;63652;51.526;5.080;2022-12-29T04:06:28;3.50;;;0.55;;
75073;SDS011;63652;51.526;5.080;2022-12-29T04:08:54;3.53;;;0.60;;
75073;SDS011;63652;51.526;5.080;2022-12-29T04:11:22;2.47;;;0.70;;
75073;SDS011;63652;51.526;5.080;2022-12-29T04:13:47;1.88;;;0.47;;
75073;SDS011;63652;51.526;5.080;2022-12-29T04:16:13;4.28;;;0.95;;
75073;SDS011;63652;51.526;5.080;2022-12-29T04:18:39;5.95;;;0.68;;
75073;SDS011;63652;51.526;5.080;2022-12-29T04:21:04;5.97;;;0.70;;
75073;SDS011;63652;51.526;5.080;2022-12-29T04:23:31;3.15;;;0.60;;
75073;SDS011;63652;51.526;5.080;2022-12-29T04:25:58;3.30;;;0.93;;
75073;SDS011;63652;51.526;5.080;2022-12-29T04:28:24;4.93;;;0.77;;
75073;SDS011;63652;51.526;5.080;2022-12-29T04:30:49;2.85;;;0.82;;
75073;SDS011;63652;51.526;5.080;2022-12-29T04:33:15;5.55;;;0.85;;
75073;SDS011;63652;51.526;5.080;2022-12-29T04:35:41;8.20;;;1.08;;
75073;SDS011;63652;51.526;5.080;2022-12-29T04:38:07;2.40;;;0.70;;
75073;SDS011;63652;51.526;5.080;2022-12-29T04:40:32;5.13;;;0.75;;
75073;SDS011;63652;51.526;5.080;2022-12-29T04:42:57;5.03;;;1.00;;
75073;SDS011;63652;51.526;5.080;2022-12-29T04:45:23;5.07;;;0.80;;
75073;SDS011;63652;51.526;5.080;2022-12-29T04:47:48;7.40;;;1.02;;
75073;SDS011;63652;51.526;5.080;2022-12-29T04:50:14;4.30;;;1.00;;
75073;SDS011;63652;51.526;5.080;2022-12-29T04:52:39;4.53;;;0.75;;
75073;SDS011;63652;51.526;5.080;2022-12-29T04:55:05;3.22;;;0.73;;
75073;SDS011;63652;51.526;5.080;2022-12-29T04:57:31;2.95;;;0.80;;
75073;SDS011;63652;51.526;5.080;2022-12-29T04:59:56;6.72;;;0.90;;
75073;SDS011;63652;51.526;5.080;2022-12-29T05:02:22;4.15;;;1.10;;
75073;SDS011;63652;51.526;5.080;2022-12-29T05:04:47;5.22;;;0.50;;
75073;SDS011;63652;51.526;5.080;2022-12-29T05:07:13;4.30;;;0.85;;
75073;SDS011;63652;51.526;5.080;2022-12-29T05:09:38;5.50;;;0.70;;
75073;SDS011;63652;51.526;5.080;2022-12-29T05:12:04;4.50;;;0.55;;
75073;SDS011;63652;51.526;5.080;2022-12-29T05:14:29;6.57;;;1.20;;
75073;SDS011;63652;51.526;5.080;2022-12-29T05:16:55;4.47;;;0.77;;
75073;SDS011;63652;51.526;5.080;2022-12-29T05:19:20;3.97;;;0.98;;
75073;SDS011;63652;51.526;5.080;2022-12-29T05:21:46;1.90;;;0.50;;
75073;SDS011;63652;51.526;5.080;2022-12-29T05:24:11;6.60;;;0.98;;
75073;SDS011;63652;51.526;5.080;2022-12-29T05:26:37;6.20;;;1.10;;
75073;SDS011;63652;51.526;5.080;2022-12-29T05:29:02;4.03;;;0.70;;
75073;SDS011;63652;51.526;5.080;2022-12-29T05:31:28;4.72;;;0.80;;
75073;SDS011;63652;51.526;5.080;2022-12-29T05:33:53;5.32;;;0.60;;
75073;SDS011;63652;51.526;5.080;2022-12-29T05:36:19;6.47;;;1.00;;
75073;SDS011;63652;51.526;5.080;2022-12-29T05:38:44;9.57;;;0.95;;
75073;SDS011;63652;51.526;5.080;2022-12-29T05:41:10;5.70;;;0.70;;
75073;SDS011;63652;51.526;5.080;2022-12-29T05:43:35;2.50;;;0.60;;
75073;SDS011;63652;51.526;5.080;2022-12-29T05:46:01;3.53;;;0.63;;
75073;SDS011;63652;51.526;5.080;2022-12-29T05:48:27;4.32;;;0.90;;
75073;SDS011;63652;51.526;5.080;2022-12-29T05:50:52;4.68;;;0.93;;
75073;SDS011;63652;51.526;5.080;2022-12-29T05:53:17;4.30;;;0.68;;
75073;SDS011;63652;51.526;5.080;2022-12-29T05:55:43;4.53;;;0.73;;
75073;SDS011;63652;51.526;5.080;2022-12-29T05:58:09;2.40;;;0.43;;
75073;SDS011;63652;51.526;5.080;2022-12-29T06:00:35;3.50;;;1.00;;
75073;SDS011;63652;51.526;5.080;2022-12-29T06:03:00;4.03;;;0.63;;
75073;SDS011;63652;51.526;5.080;2022-12-29T06:05:26;7.97;;;0.88;;
75073;SDS011;63652;51.526;5.080;2022-12-29T06:07:51;4.32;;;0.70;;
75073;SDS011;63652;51.526;5.080;2022-12-29T06:10:17;3.72;;;0.57;;
75073;SDS011;63652;51.526;5.080;2022-12-29T06:12:42;3.42;;;0.68;;
75073;SDS011;63652;51.526;5.080;2022-12-29T06:15:08;2.90;;;0.63;;
75073;SDS011;63652;51.526;5.080;2022-12-29T06:17:33;3.38;;;0.70;;
75073;SDS011;63652;51.526;5.080;2022-12-29T06:19:59;2.88;;;0.45;;
75073;SDS011;63652;51.526;5.080;2022-12-29T06:22:27;2.75;;;0.60;;
75073;SDS011;63652;51.526;5.080;2022-12-29T06:24:52;6.90;;;0.90;;
75073;SDS011;63652;51.526;5.080;2022-12-29T06:27:18;2.85;;;0.60;;
75073;SDS011;63652;51.526;5.080;2022-12-29T06:29:43;3.72;;;0.85;;
75073;SDS011;63652;51.526;5.080;2022-12-29T06:32:09;2.85;;;0.63;;
75073;SDS011;63652;51.526;5.080;2022-12-29T06:34:34;5.43;;;0.60;;
75073;SDS011;63652;51.526;5.080;2022-12-29T06:37:00;2.17;;;0.40;;
75073;SDS011;63652;51.526;5.080;2022-12-29T06:39:26;4.72;;;0.68;;
75073;SDS011;63652;51.526;5.080;2022-12-29T06:41:52;4.18;;;0.90;;
75073;SDS011;63652;51.526;5.080;2022-12-29T06:44:18;3.83;;;0.93;;
75073;SDS011;63652;51.526;5.080;2022-12-29T06:46:44;6.10;;;1.02;;
75073;SDS011;63652;51.526;5.080;2022-12-29T06:49:10;2.53;;;0.60;;
75073;SDS011;63652;51.526;5.080;2022-12-29T06:51:35;6.15;;;0.88;;
75073;SDS011;63652;51.526;5.080;2022-12-29T06:54:00;5.20;;;1.30;;
75073;SDS011;63652;51.526;5.080;2022-12-29T06:56:26;7.65;;;1.05;;
75073;SDS011;63652;51.526;5.080;2022-12-29T06:58:51;3.35;;;0.52;;
75073;SDS011;63652;51.526;5.080;2022-12-29T07:01:17;9.27;;;1.20;;
75073;SDS011;63652;51.526;5.080;2022-12-29T07:03:42;6.00;;;1.45;;
75073;SDS011;63652;51.526;5.080;2022-12-29T07:06:08;4.47;;;0.80;;
75073;SDS011;63652;51.526;5.080;2022-12-29T07:08:33;4.55;;;0.82;;
75073;SDS011;63652;51.526;5.080;2022-12-29T07:10:59;5.22;;;0.57;;
75073;SDS011;63652;51.526;5.080;2022-12-29T07:13:24;6.63;;;0.80;;
75073;SDS011;63652;51.526;5.080;2022-12-29T07:15:49;3.65;;;0.82;;
75073;SDS011;63652;51.526;5.080;2022-12-29T07:18:15;4.75;;;0.70;;
75073;SDS011;63652;51.526;5.080;2022-12-29T07:20:40;4.38;;;0.77;;
75073;SDS011;63652;51.526;5.080;2022-12-29T07:23:05;13.07;;;1.40;;
75073;SDS011;63652;51.526;5.080;2022-12-29T07:25:31;8.02;;;1.40;;
75073;SDS011;63652;51.526;5.080;2022-12-29T07:27:56;5.70;;;0.95;;
75073;SDS011;63652;51.526;5.080;2022-12-29T07:30:22;4.28;;;1.10;;
75073;SDS011;63652;51.526;5.080;2022-12-29T07:32:47;6.50;;;0.90;;
75073;SDS011;63652;51.526;5.080;2022-12-29T07:35:13;8.02;;;1.27;;
75073;SDS011;63652;51.526;5.080;2022-12-29T07:37:38;6.03;;;1.00;;
75073;SDS011;63652;51.526;5.080;2022-12-29T07:40:04;4.55;;;0.90;;
75073;SDS011;63652;51.526;5.080;2022-12-29T07:42:30;7.25;;;1.20;;
75073;SDS011;63652;51.526;5.080;2022-12-29T07:44:56;7.40;;;1.02;;
75073;SDS011;63652;51.526;5.080;2022-12-29T07:47:21;4.97;;;0.90;;
75073;SDS011;63652;51.526;5.080;2022-12-29T07:49:47;7.20;;;0.98;;
75073;SDS011;63652;51.526;5.080;2022-12-29T07:52:12;5.20;;;0.93;;
75073;SDS011;63652;51.526;5.080;2022-12-29T07:54:38;4.45;;;0.80;;
75073;SDS011;63652;51.526;5.080;2022-12-29T07:57:03;6.25;;;1.30;;
75073;SDS011;63652;51.526;5.080;2022-12-29T07:59:29;8.77;;;0.93;;
75073;SDS011;63652;51.526;5.080;2022-12-29T08:01:55;9.93;;;1.45;;
75073;SDS011;63652;51.526;5.080;2022-12-29T08:04:30;12.20;;;1.65;;
75073;SDS011;63652;51.526;5.080;2022-12-29T08:06:55;5.65;;;0.80;;
75073;SDS011;63652;51.526;5.080;2022-12-29T08:09:21;5.55;;;1.08;;
75073;SDS011;63652;51.526;5.080;2022-12-29T08:11:46;8.82;;;1.60;;
75073;SDS011;63652;51.526;5.080;2022-12-29T08:14:12;7.60;;;1.20;;
75073;SDS011;63652;51.526;5.080;2022-12-29T08:16:38;10.88;;;1.45;;
75073;SDS011;63652;51.526;5.080;2022-12-29T08:19:03;6.90;;;1.10;;
75073;SDS011;63652;51.526;5.080;2022-12-29T08:21:33;8.65;;;1.10;;
75073;SDS011;63652;51.526;5.080;2022-12-29T08:23:58;7.47;;;1.65;;
75073;SDS011;63652;51.526;5.080;2022-12-29T08:26:27;7.07;;;1.23;;
75073;SDS011;63652;51.526;5.080;2022-12-29T08:28:56;4.93;;;0.93;;
75073;SDS011;63652;51.526;5.080;2022-12-29T08:31:22;7.78;;;1.33;;
75073;SDS011;63652;51.526;5.080;2022-12-29T08:33:51;6.70;;;1.20;;
75073;SDS011;63652;51.526;5.080;2022-12-29T08:36:16;10.90;;;1.33;;
75073;SDS011;63652;51.526;5.080;2022-12-29T08:38:42;5.75;;;0.95;;
75073;SDS011;63652;51.526;5.080;2022-12-29T08:41:07;7.20;;;1.63;;
75073;SDS011;63652;51.526;5.080;2022-12-29T08:43:33;5.43;;;0.77;;
75073;SDS011;63652;51.526;5.080;2022-12-29T08:46:01;6.60;;;0.80;;
75073;SDS011;63652;51.526;5.080;2022-12-29T08:48:31;9.82;;;0.80;;
75073;SDS011;63652;51.526;5.080;2022-12-29T08:50:57;7.30;;;1.02;;
75073;SDS011;63652;51.526;5.080;2022-12-29T08:53:22;12.27;;;2.17;;
75073;SDS011;63652;51.526;5.080;2022-12-29T08:55:53;5.32;;;0.90;;
75073;SDS011;63652;51.526;5.080;2022-12-29T08:58:20;3.05;;;0.60;;
75073;SDS011;63652;51.526;5.080;2022-12-29T09:00:46;6.25;;;1.52;;
75073;SDS011;63652;51.526;5.080;2022-12-29T09:03:15;6.63;;;0.80;;
75073;SDS011;63652;51.526;5.080;2022-12-29T09:05:46;12.10;;;1.23;;
75073;SDS011;63652;51.526;5.080;2022-12-29T09:08:13;7.25;;;0.90;;
75073;SDS011;63652;51.526;5.080;2022-12-29T09:10:38;3.85;;;0.90;;
75073;SDS011;63652;51.526;5.080;2022-12-29T09:13:03;6.05;;;1.48;;
75073;SDS011;63652;51.526;5.080;2022-12-29T09:15:29;7.28;;;0.93;;
75073;SDS011;63652;51.526;5.080;2022-12-29T09:17:54;11.82;;;1.73;;
75073;SDS011;63652;51.526;5.080;2022-12-29T09:20:20;8.35;;;1.17;;
75073;SDS011;63652;51.526;5.080;2022-12-29T09:22:49;8.90;;;1.20;;
75073;SDS011;63652;51.526;5.080;2022-12-29T09:25:15;7.70;;;1.63;;
75073;SDS011;63652;51.526;5.080;2022-12-29T09:27:40;8.15;;;1.30;;
75073;SDS011;63652;51.526;5.080;2022-12-29T09:30:09;4.68;;;0.90;;
75073;SDS011;63652;51.526;5.080;2022-12-29T09:32:36;7.28;;;1.20;;
75073;SDS011;63652;51.526;5.080;2022-12-29T09:35:01;6.47;;;1.05;;
75073;SDS011;63652;51.526;5.080;2022-12-29T09:37:27;5.45;;;1.10;;
75073;SDS011;63652;51.526;5.080;2022-12-29T09:39:53;9.93;;;1.17;;
75073;SDS011;63652;51.526;5.080;2022-12-29T09:47:23;10.07;;;1.73;;
75073;SDS011;63652;51.526;5.080;2022-12-29T09:49:52;8.40;;;1.67;;
75073;SDS011;63652;51.526;5.080;2022-12-29T09:52:43;7.05;;;1.77;;
75073;SDS011;63652;51.526;5.080;2022-12-29T09:55:16;10.02;;;1.10;;
75073;SDS011;63652;51.526;5.080;2022-12-29T10:00:56;9.18;;;1.42;;
75073;SDS011;63652;51.526;5.080;2022-12-29T10:03:27;4.88;;;0.77;;
75073;SDS011;63652;51.526;5.080;2022-12-29T10:06:11;4.63;;;0.90;;
75073;SDS011;63652;51.526;5.080;2022-12-29T10:22:38;6.28;;;1.20;;
75073;SDS011;63652;51.526;5.080;2022-12-29T10:25:26;6.20;;;1.17;;
75073;SDS011;63652;51.526;5.080;2022-12-29T10:27:54;9.27;;;1.45;;
75073;SDS011;63652;51.526;5.080;2022-12-29T10:30:23;8.85;;;1.60;;
75073;SDS011;63652;51.526;5.080;2022-12-29T10:32:50;11.52;;;2.38;;
75073;SDS011;63652;51.526;5.080;2022-12-29T10:35:21;7.25;;;2.03;;
75073;SDS011;63652;51.526;5.080;2022-12-29T10:40:18;7.82;;;1.50;;
75073;SDS011;63652;51.526;5.080;2022-12-29T10:42:50;6.22;;;1.42;;
75073;SDS011;63652;51.526;5.080;2022-12-29T10:45:18;13.75;;;2.22;;
75073;SDS011;63652;51.526;5.080;2022-12-29T10:47:52;4.13;;;1.40;;
75073;SDS011;63652;51.526;5.080;2022-12-29T10:50:20;11.35;;;1.58;;
75073;SDS011;63652;51.526;5.080;2022-12-29T10:52:45;3.47;;;1.05;;
75073;SDS011;63652;51.526;5.080;2022-12-29T10:55:12;10.30;;;1.38;;
75073;SDS011;63652;51.526;5.080;2022-12-29T10:57:41;5.82;;;1.00;;
75073;SDS011;63652;51.526;5.080;2022-12-29T11:00:13;8.93;;;1.35;;
75073;SDS011;63652;51.526;5.080;2022-12-29T11:07:59;13.32;;;2.03;;
75073;SDS011;63652;51.526;5.080;2022-12-29T11:12:59;7.35;;;1.67;;
75073;SDS011;63652;51.526;5.080;2022-12-29T11:15:26;11.52;;;1.88;;
75073;SDS011;63652;51.526;5.080;2022-12-29T11:17:56;10.02;;;1.58;;
75073;SDS011;63652;51.526;5.080;2022-12-29T11:20:28;10.00;;;1.55;;
75073;SDS011;63652;51.526;5.080;2022-12-29T11:22:54;14.63;;;2.10;;
75073;SDS011;63652;51.526;5.080;2022-12-29T11:25:19;14.27;;;2.05;;
75073;SDS011;63652;51.526;5.080;2022-12-29T11:27:58;6.85;;;1.83;;
75073;SDS011;63652;51.526;5.080;2022-12-29T11:30:26;9.80;;;1.60;;
75073;SDS011;63652;51.526;5.080;2022-12-29T11:32:53;13.18;;;2.08;;
75073;SDS011;63652;51.526;5.080;2022-12-29T11:35:30;9.98;;;2.22;;
75073;SDS011;63652;51.526;5.080;2022-12-29T11:37:58;9.10;;;1.77;;
75073;SDS011;63652;51.526;5.080;2022-12-29T11:40:24;9.90;;;1.48;;
75073;SDS011;63652;51.526;5.080;2022-12-29T11:43:02;8.57;;;2.40;;
75073;SDS011;63652;51.526;5.080;2022-12-29T11:45:32;10.77;;;1.63;;
75073;SDS011;63652;51.526;5.080;2022-12-29T11:48:00;7.40;;;1.17;;
75073;SDS011;63652;51.526;5.080;2022-12-29T11:50:32;6.07;;;1.73;;
75073;SDS011;63652;51.526;5.080;2022-12-29T11:53:05;9.02;;;1.70;;
75073;SDS011;63652;51.526;5.080;2022-12-29T11:55:53;7.70;;;1.30;;
75073;SDS011;63652;51.526;5.080;2022-12-29T11:58:36;7.22;;;1.55;;
75073;SDS011;63652;51.526;5.080;2022-12-29T12:01:36;10.20;;;1.55;;
75073;SDS011;63652;51.526;5.080;2022-12-29T12:06:34;7.78;;;1.55;;
75073;SDS011;63652;51.526;5.080;2022-12-29T12:09:05;12.60;;;2.55;;
75073;SDS011;63652;51.526;5.080;2022-12-29T12:17:09;6.60;;;1.73;;
75073;SDS011;63652;51.526;5.080;2022-12-29T12:24:49;8.65;;;1.30;;
75073;SDS011;63652;51.526;5.080;2022-12-29T12:27:28;8.07;;;1.50;;
75073;SDS011;63652;51.526;5.080;2022-12-29T12:30:09;6.95;;;1.38;;
75073;SDS011;63652;51.526;5.080;2022-12-29T12:38:33;7.32;;;1.05;;
75073;SDS011;63652;51.526;5.080;2022-12-29T12:41:28;8.23;;;1.20;;
75073;SDS011;63652;51.526;5.080;2022-12-29T12:44:02;4.55;;;0.95;;
75073;SDS011;63652;51.526;5.080;2022-12-29T12:58:27;6.28;;;1.08;;
75073;SDS011;63652;51.526;5.080;2022-12-29T13:06:22;5.38;;;1.30;;
75073;SDS011;63652;51.526;5.080;2022-12-29T13:17:36;6.05;;;0.77;;
75073;SDS011;63652;51.526;5.080;2022-12-29T13:20:22;6.68;;;0.98;;
75073;SDS011;63652;51.526;5.080;2022-12-29T13:22:58;7.43;;;1.33;;
75073;SDS011;63652;51.526;5.080;2022-12-29T13:25:36;10.00;;;1.92;;
75073;SDS011;63652;51.526;5.080;2022-12-29T13:30:33;7.47;;;1.10;;
75073;SDS011;63652;51.526;5.080;2022-12-29T13:33:28;9.95;;;0.88;;
75073;SDS011;63652;51.526;5.080;2022-12-29T13:38:48;7.60;;;1.92;;
75073;SDS011;63652;51.526;5.080;2022-12-29T13:41:50;4.40;;;0.80;;
75073;SDS011;63652;51.526;5.080;2022-12-29T13:44:11;4.18;;;1.30;;
75073;SDS011;63652;51.526;5.080;2022-12-29T13:46:43;3.97;;;1.08;;
75073;SDS011;63652;51.526;5.080;2022-12-29T13:54:35;5.78;;;1.10;;
75073;SDS011;63652;51.526;5.080;2022-12-29T13:57:06;7.32;;;1.10;;
75073;SDS011;63652;51.526;5.080;2022-12-29T13:59:52;5.75;;;1.35;;
75073;SDS011;63652;51.526;5.080;2022-12-29T14:05:00;4.05;;;1.35;;
75073;SDS011;63652;51.526;5.080;2022-12-29T14:07:27;6.13;;;1.48;;
75073;SDS011;63652;51.526;5.080;2022-12-29T14:09:55;9.57;;;1.42;;
75073;SDS011;63652;51.526;5.080;2022-12-29T14:12:27;6.35;;;1.42;;
75073;SDS011;63652;51.526;5.080;2022-12-29T14:15:01;8.50;;;2.03;;
75073;SDS011;63652;51.526;5.080;2022-12-29T14:17:33;6.35;;;1.50;;
75073;SDS011;63652;51.526;5.080;2022-12-29T14:19:59;8.45;;;1.63;;
75073;SDS011;63652;51.526;5.080;2022-12-29T14:22:28;7.55;;;1.55;;
75073;SDS011;63652;51.526;5.080;2022-12-29T14:24:55;9.77;;;2.33;;
75073;SDS011;63652;51.526;5.080;2022-12-29T14:29:47;10.60;;;2.00;;
75073;SDS011;63652;51.526;5.080;2022-12-29T14:34:46;9.05;;;1.20;;
75073;SDS011;63652;51.526;5.080;2022-12-29T14:40:16;4.07;;;1.17;;
75073;SDS011;63652;51.526;5.080;2022-12-29T14:42:58;9.18;;;1.80;;
75073;SDS011;63652;51.526;5.080;2022-12-29T14:45:29;11.15;;;2.65;;
75073;SDS011;63652;51.526;5.080;2022-12-29T14:47:57;7.65;;;1.80;;
75073;SDS011;63652;51.526;5.080;2022-12-29T14:53:06;6.15;;;1.60;;
75073;SDS011;63652;51.526;5.080;2022-12-29T14:55:57;10.07;;;1.35;;
75073;SDS011;63652;51.526;5.080;2022-12-29T15:00:56;5.97;;;0.95;;
75073;SDS011;63652;51.526;5.080;2022-12-29T15:03:32;2.63;;;1.05;;
75073;SDS011;63652;51.526;5.080;2022-12-29T15:06:15;7.88;;;1.33;;
75073;SDS011;63652;51.526;5.080;2022-12-29T15:08:49;6.72;;;1.35;;
75073;SDS011;63652;51.526;5.080;2022-12-29T15:13:50;6.88;;;1.52;;
75073;SDS011;63652;51.526;5.080;2022-12-29T15:16:32;4.43;;;0.88;;
75073;SDS011;63652;51.526;5.080;2022-12-29T15:19:00;9.98;;;2.08;;
75073;SDS011;63652;51.526;5.080;2022-12-29T15:21:27;3.58;;;0.90;;
75073;SDS011;63652;51.526;5.080;2022-12-29T15:24:10;5.88;;;1.45;;
75073;SDS011;63652;51.526;5.080;2022-12-29T15:26:49;6.97;;;1.10;;
75073;SDS011;63652;51.526;5.080;2022-12-29T15:37:57;4.10;;;1.17;;
75073;SDS011;63652;51.526;5.080;2022-12-29T15:40:31;6.95;;;1.45;;
75073;SDS011;63652;51.526;5.080;2022-12-29T15:45:41;2.80;;;0.82;;
75073;SDS011;63652;51.526;5.080;2022-12-29T15:48:26;3.25;;;0.98;;
75073;SDS011;63652;51.526;5.080;2022-12-29T15:51:01;3.72;;;0.70;;
75073;SDS011;63652;51.526;5.080;2022-12-29T15:53:32;3.03;;;1.10;;
75073;SDS011;63652;51.526;5.080;2022-12-29T15:58:53;9.52;;;1.40;;
75073;SDS011;63652;51.526;5.080;2022-12-29T16:01:40;3.95;;;1.20;;
75073;SDS011;63652;51.526;5.080;2022-12-29T16:04:13;3.13;;;0.90;;
75073;SDS011;63652;51.526;5.080;2022-12-29T16:06:44;6.47;;;1.90;;
75073;SDS011;63652;51.526;5.080;2022-12-29T16:09:18;4.78;;;1.60;;
75073;SDS011;63652;51.526;5.080;2022-12-29T16:11:53;5.22;;;1.17;;
75073;SDS011;63652;51.526;5.080;2022-12-29T16:14:21;9.60;;;1.80;;
75073;SDS011;63652;51.526;5.080;2022-12-29T16:16:51;5.93;;;1.35;;
75073;SDS011;63652;51.526;5.080;2022-12-29T16:21:51;4.63;;;1.30;;
75073;SDS011;63652;51.526;5.080;2022-12-29T16:24:20;3.47;;;1.20;;
75073;SDS011;63652;51.526;5.080;2022-12-29T16:26:59;3.25;;;1.10;;
75073;SDS011;63652;51.526;5.080;2022-12-29T16:29:28;10.38;;;1.30;;
75073;SDS011;63652;51.526;5.080;2022-12-29T16:31:55;5.43;;;1.00;;
75073;SDS011;63652;51.526;5.080;2022-12-29T16:36:54;2.95;;;0.52;;
75073;SDS011;63652;51.526;5.080;2022-12-29T16:39:31;4.93;;;0.80;;
75073;SDS011;63652;51.526;5.080;2022-12-29T16:48:18;4.68;;;1.20;;
75073;SDS011;63652;51.526;5.080;2022-12-29T16:50:47;9.23;;;1.55;;
75073;SDS011;63652;51.526;5.080;2022-12-29T16:53:26;6.25;;;1.13;;
75073;SDS011;63652;51.526;5.080;2022-12-29T16:55:55;6.18;;;2.03;;
75073;SDS011;63652;51.526;5.080;2022-12-29T16:58:24;6.70;;;1.27;;
75073;SDS011;63652;51.526;5.080;2022-12-29T17:00:52;6.00;;;1.63;;
75073;SDS011;63652;51.526;5.080;2022-12-29T17:03:24;2.65;;;0.75;;
75073;SDS011;63652;51.526;5.080;2022-12-29T17:06:01;6.63;;;1.10;;
75073;SDS011;63652;51.526;5.080;2022-12-29T17:08:40;6.75;;;1.10;;
75073;SDS011;63652;51.526;5.080;2022-12-29T17:11:08;3.55;;;0.90;;
75073;SDS011;63652;51.526;5.080;2022-12-29T17:17:13;3.90;;;0.70;;
75073;SDS011;63652;51.526;5.080;2022-12-29T17:20:34;6.20;;;1.13;;
75073;SDS011;63652;51.526;5.080;2022-12-29T17:22:53;6.60;;;2.00;;
75073;SDS011;63652;51.526;5.080;2022-12-29T17:25:20;7.22;;;2.20;;
75073;SDS011;63652;51.526;5.080;2022-12-29T17:27:58;5.43;;;1.30;;
75073;SDS011;63652;51.526;5.080;2022-12-29T17:30:26;11.15;;;1.83;;
75073;SDS011;63652;51.526;5.080;2022-12-29T17:32:58;7.50;;;1.80;;
75073;SDS011;63652;51.526;5.080;2022-12-29T17:35:27;7.93;;;1.77;;
75073;SDS011;63652;51.526;5.080;2022-12-29T17:37:53;8.98;;;1.90;;
75073;SDS011;63652;51.526;5.080;2022-12-29T17:40:19;10.77;;;1.27;;
75073;SDS011;63652;51.526;5.080;2022-12-29T17:42:51;9.77;;;2.90;;
75073;SDS011;63652;51.526;5.080;2022-12-29T17:48:24;8.68;;;1.60;;
75073;SDS011;63652;51.526;5.080;2022-12-29T17:50:52;10.20;;;1.52;;
75073;SDS011;63652;51.526;5.080;2022-12-29T17:53:37;14.60;;;1.92;;
75073;SDS011;63652;51.526;5.080;2022-12-29T17:56:14;7.63;;;1.58;;
75073;SDS011;63652;51.526;5.080;2022-12-29T17:58:43;6.97;;;1.45;;